Accueil
METAR-TAF:

METAR-TAF

Aéroports :

Municipal

Tunica, Mississippi, États-Unis

latitude: 34-41-06N, longitude: 090-20-52W, altitude: 59 m

Observation

Le bulletin a été fait il y a 23 minutes, à 22:35 UTC
Vent 7 kt de sud-est
Température 16°C
Humidité 48%
Pression 1020 hPa
Visibilité: 16.1 km

METAR: KUTA 202235Z AUTO 14007KT 10SM 16/05 A3013 RMK AO2 TSNO

Heure: 16:58 (22:58 UTC)


TAF: absent

Observations et prévisions météorologiques de plus de 4000 aéroports (messages METAR et TAF).

Les stations disponibles sont représentées par des disques jaunes et rouges sur la carte.

Passer la souris dessus pour voir le nom de la station.

Cliquer dessus pour voir les observations et prévisions météorologiques.

Pour changer de carte: cliquez sur les boutons verts avec une croix noire pour zoomer, sur le bouton vert avec un tiret pour effectuer un zoom arrière, ou sur les flèches vertes pour les cartes adjacentes.


METAR-TAF: